createdAt,value
2019-04-13T00:00:10.473Z,7.66
2019-04-13T00:02:42.187Z,7.64
2019-04-13T00:05:18.593Z,7.70
2019-04-13T00:07:48.632Z,7.69
2019-04-13T00:10:19.136Z,7.70
2019-04-13T00:12:47.526Z,7.70
2019-04-13T00:15:17.643Z,7.71
2019-04-13T00:17:45.962Z,7.71
2019-04-13T00:20:14.331Z,7.68
2019-04-13T00:22:42.691Z,7.60
2019-04-13T00:25:13.120Z,7.62
2019-04-13T00:27:41.528Z,7.58
2019-04-13T00:30:09.902Z,7.63
2019-04-13T00:32:38.284Z,7.64
2019-04-13T00:35:06.608Z,7.56
2019-04-13T00:37:35.015Z,7.61
2019-04-13T00:40:04.250Z,7.58
2019-04-13T00:42:32.637Z,7.57
2019-04-13T00:45:01.113Z,7.55
2019-04-13T00:47:29.496Z,7.45
2019-04-13T00:49:57.816Z,7.53
2019-04-13T00:52:26.148Z,7.51
2019-04-13T00:54:54.521Z,7.49
2019-04-13T00:57:23.023Z,7.49
2019-04-13T00:59:51.408Z,7.41
2019-04-13T01:02:19.933Z,7.41
2019-04-13T01:04:53.691Z,7.41
2019-04-13T01:07:18.336Z,7.42
2019-04-13T01:09:46.879Z,7.34
2019-04-13T01:12:15.322Z,7.42
2019-04-13T01:14:43.900Z,7.42
2019-04-13T01:17:12.274Z,7.38
2019-04-13T01:19:42.179Z,7.41
2019-04-13T01:22:10.552Z,7.43
2019-04-13T01:24:41.136Z,7.39
2019-04-13T01:27:09.572Z,7.35
2019-04-13T01:29:37.984Z,7.35
2019-04-13T01:32:06.412Z,7.34
2019-04-13T01:34:34.746Z,7.37
2019-04-13T01:37:03.035Z,7.27
2019-04-13T01:39:31.460Z,7.26
2019-04-13T01:41:59.828Z,7.34
2019-04-13T01:44:28.195Z,7.34
2019-04-13T01:46:56.481Z,7.30
2019-04-13T01:49:24.818Z,7.30
2019-04-13T01:51:53.124Z,7.25
2019-04-13T01:54:21.516Z,7.25
2019-04-13T01:56:49.888Z,7.28
2019-04-13T01:59:18.230Z,7.26
2019-04-13T02:02:06.708Z,7.25
2019-04-13T02:04:52.081Z,7.25
2019-04-13T02:07:22.084Z,7.24
2019-04-13T02:10:08.894Z,7.26
2019-04-13T02:12:37.259Z,7.24
2019-04-13T02:15:07.284Z,7.23
2019-04-13T02:17:35.657Z,7.25
2019-04-13T02:20:04.845Z,7.19
2019-04-13T02:22:33.148Z,7.19
2019-04-13T02:25:01.619Z,7.16
2019-04-13T02:27:29.954Z,7.16
2019-04-13T02:29:58.575Z,6.98
2019-04-13T02:32:26.945Z,6.98
2019-04-13T02:34:55.483Z,7.13
2019-04-13T02:37:23.810Z,7.00
2019-04-13T02:39:52.117Z,6.93
2019-04-13T02:42:20.689Z,6.93
2019-04-13T02:44:48.974Z,6.86
2019-04-13T02:47:17.307Z,6.88
2019-04-13T02:49:45.829Z,6.86
2019-04-13T02:52:14.245Z,6.81
2019-04-13T02:54:42.525Z,6.84
2019-04-13T02:57:11.040Z,6.77
2019-04-13T02:59:39.525Z,6.77
2019-04-13T03:02:08.138Z,6.84
2019-04-13T03:04:37.265Z,6.83
2019-04-13T03:07:05.791Z,6.80
2019-04-13T03:09:34.076Z,6.68
2019-04-13T03:12:02.565Z,6.74
2019-04-13T03:14:30.926Z,6.78
2019-04-13T03:17:17.365Z,6.78
2019-04-13T03:19:53.341Z,6.78
2019-04-13T03:22:21.958Z,6.78
2019-04-13T03:24:50.250Z,6.63
2019-04-13T03:27:18.581Z,6.63
2019-04-13T03:29:46.892Z,6.61
2019-04-13T03:32:15.291Z,6.67
2019-04-13T03:34:43.650Z,6.67
2019-04-13T03:37:12.045Z,6.59
2019-04-13T03:39:40.357Z,6.59
2019-04-13T03:42:08.708Z,6.60
2019-04-13T03:44:37.003Z,6.49
2019-04-13T03:47:05.418Z,6.52
2019-04-13T03:49:33.796Z,6.52
2019-04-13T03:52:02.101Z,6.48
2019-04-13T03:54:30.498Z,6.42
2019-04-13T03:56:58.979Z,6.42
2019-04-13T03:59:27.373Z,6.37
2019-04-13T04:01:55.772Z,6.38
2019-04-13T04:04:24.092Z,6.31
2019-04-13T04:06:52.388Z,6.31
2019-04-13T04:09:20.785Z,6.37
2019-04-13T04:11:49.088Z,6.42
2019-04-13T04:14:17.838Z,6.36
2019-04-13T04:16:46.162Z,6.42
2019-04-13T04:19:14.479Z,6.42
2019-04-13T04:21:42.859Z,6.39
2019-04-13T04:24:11.172Z,6.34
2019-04-13T04:26:39.642Z,6.29
2019-04-13T04:29:07.973Z,6.28
2019-04-13T04:31:36.278Z,6.28
2019-04-13T04:34:04.607Z,6.30
2019-04-13T04:36:33.137Z,6.30
2019-04-13T04:39:01.661Z,6.30
2019-04-13T04:41:30.355Z,6.27
2019-04-13T04:43:58.843Z,6.27
2019-04-13T04:46:27.179Z,6.27
2019-04-13T04:48:55.483Z,6.27
2019-04-13T04:51:23.840Z,6.26
2019-04-13T04:53:52.196Z,6.24
2019-04-13T04:56:22.226Z,6.11
2019-04-13T04:58:50.516Z,6.12
2019-04-13T05:01:18.856Z,6.18
2019-04-13T05:03:47.266Z,6.18
2019-04-13T05:06:15.831Z,6.13
2019-04-13T05:08:44.145Z,6.21
2019-04-13T05:11:12.491Z,6.21
2019-04-13T05:13:40.830Z,6.17
2019-04-13T05:16:09.153Z,6.04
2019-04-13T05:18:37.494Z,5.98
2019-04-13T05:21:06.126Z,5.99
2019-04-13T05:23:34.411Z,5.99
2019-04-13T05:26:02.744Z,6.05
2019-04-13T05:28:31.354Z,6.07
2019-04-13T05:31:01.292Z,6.04
2019-04-13T05:33:29.722Z,6.09
2019-04-13T05:35:58.127Z,6.10
2019-04-13T05:38:26.543Z,6.08
2019-04-13T05:40:55.212Z,6.08
2019-04-13T05:43:23.611Z,6.08
2019-04-13T05:45:52.029Z,6.17
2019-04-13T05:48:20.411Z,6.17
2019-04-13T05:50:48.773Z,6.17
2019-04-13T05:53:17.113Z,6.22
2019-04-13T05:55:45.511Z,6.24
2019-04-13T05:58:14.722Z,6.16
2019-04-13T06:00:43.208Z,6.16
2019-04-13T06:03:11.671Z,6.16
2019-04-13T06:05:40.201Z,6.22
2019-04-13T06:08:08.530Z,6.22
2019-04-13T06:10:36.848Z,6.28
2019-04-13T06:13:05.353Z,6.33
2019-04-13T06:15:34.115Z,6.33
2019-04-13T06:18:03.308Z,6.36
2019-04-13T06:20:32.643Z,6.38
2019-04-13T06:23:00.962Z,6.42
2019-04-13T06:25:30.766Z,6.42
2019-04-13T06:27:59.541Z,6.38
2019-04-13T06:30:39.346Z,6.39
2019-04-13T06:33:09.325Z,6.32
2019-04-13T06:35:37.765Z,6.32
2019-04-13T06:38:06.165Z,6.27
2019-04-13T06:40:34.455Z,6.32
2019-04-13T06:43:02.872Z,6.30
2019-04-13T06:45:31.286Z,6.35
2019-04-13T06:48:00.448Z,6.35
2019-04-13T06:50:29.160Z,6.30
2019-04-13T06:52:57.569Z,6.30
2019-04-13T06:55:25.912Z,6.30
2019-04-13T06:57:54.227Z,6.30
2019-04-13T07:00:22.581Z,6.35
2019-04-13T07:02:51.023Z,6.35
2019-04-13T07:05:19.645Z,6.45
2019-04-13T07:07:52.370Z,6.76
2019-04-13T07:10:44.227Z,6.97
2019-04-13T07:13:11.818Z,7.07
2019-04-13T07:15:46.508Z,7.07
2019-04-13T07:18:14.710Z,7.26
2019-04-13T07:20:48.092Z,7.28
2019-04-13T07:23:14.388Z,7.28
2019-04-13T07:25:42.904Z,7.34
2019-04-13T07:28:12.960Z,7.17
2019-04-13T07:30:41.307Z,7.17
2019-04-13T07:33:09.717Z,7.18
2019-04-13T07:35:40.514Z,7.08
2019-04-13T07:38:08.102Z,7.08
2019-04-13T07:40:36.435Z,7.26
2019-04-13T07:43:04.850Z,7.26
2019-04-13T07:45:37.811Z,7.40
2019-04-13T07:48:23.637Z,7.47
2019-04-13T07:50:59.741Z,7.47
2019-04-13T07:53:28.090Z,7.26
2019-04-13T07:55:58.207Z,7.26
2019-04-13T07:58:26.585Z,7.17
2019-04-13T08:00:58.513Z,7.17
2019-04-13T08:03:25.124Z,7.30
2019-04-13T08:05:53.803Z,7.30
2019-04-13T08:08:22.116Z,7.44
2019-04-13T08:10:50.440Z,7.60
2019-04-13T08:13:18.888Z,7.53
2019-04-13T08:15:47.280Z,7.50
2019-04-13T08:18:17.247Z,7.42
2019-04-13T08:20:45.576Z,7.38
2019-04-13T08:23:13.912Z,7.33
2019-04-13T08:25:45.322Z,7.33
2019-04-13T08:28:15.697Z,7.48
2019-04-13T08:30:49.165Z,7.48
2019-04-13T08:33:14.586Z,7.49
2019-04-13T08:35:43.311Z,7.49
2019-04-13T08:38:13.045Z,7.45
2019-04-13T08:40:46.203Z,7.45
2019-04-13T08:43:12.323Z,7.55
2019-04-13T08:45:43.624Z,7.66
2019-04-13T08:48:10.833Z,7.67
2019-04-13T08:50:39.166Z,7.67
2019-04-13T08:53:07.655Z,7.79
2019-04-13T08:55:39.712Z,7.76
2019-04-13T08:58:06.140Z,7.76
2019-04-13T09:00:34.535Z,7.90
2019-04-13T09:03:02.887Z,8.08
2019-04-13T09:05:31.264Z,8.32
2019-04-13T09:07:59.703Z,8.54
2019-04-13T09:10:30.114Z,8.69
2019-04-13T09:12:59.471Z,8.75
2019-04-13T09:15:28.774Z,8.87
2019-04-13T09:18:01.805Z,9.08
2019-04-13T09:20:36.932Z,9.34
2019-04-13T09:23:04.785Z,9.57
2019-04-13T09:25:33.287Z,9.75
2019-04-13T09:28:02.500Z,9.69
2019-04-13T09:30:32.776Z,9.71
2019-04-13T09:33:04.041Z,9.65
2019-04-13T09:35:31.317Z,9.56
2019-04-13T09:37:59.645Z,9.43
2019-04-13T09:40:28.118Z,9.40
2019-04-13T09:42:59.452Z,9.43
2019-04-13T09:45:28.075Z,9.13
2019-04-13T09:47:56.578Z,9.14
2019-04-13T09:50:24.918Z,9.16
2019-04-13T09:52:53.235Z,9.01
2019-04-13T09:55:23.293Z,8.83
2019-04-13T09:57:51.873Z,8.73
2019-04-13T10:00:20.394Z,8.73
2019-04-13T10:02:49.312Z,8.66
2019-04-13T10:05:17.813Z,8.54
2019-04-13T10:07:46.267Z,8.67
2019-04-13T10:10:14.669Z,8.79
2019-04-13T10:12:47.024Z,8.87
2019-04-13T10:15:25.969Z,8.99
2019-04-13T10:17:56.035Z,9.08
2019-04-13T10:20:24.430Z,9.26
2019-04-13T10:22:53.532Z,9.40
2019-04-13T10:25:24.338Z,9.52
2019-04-13T10:27:52.659Z,9.71
2019-04-13T10:30:21.011Z,9.69
2019-04-13T10:32:49.315Z,9.64
2019-04-13T10:35:17.641Z,9.75
2019-04-13T10:37:45.984Z,9.82
2019-04-13T10:40:14.939Z,9.73
2019-04-13T10:42:43.414Z,9.66
2019-04-13T10:45:31.686Z,9.62
2019-04-13T10:48:19.514Z,9.62
2019-04-13T10:50:49.491Z,9.63
2019-04-13T10:53:17.796Z,9.27
2019-04-13T10:55:46.141Z,9.29
2019-04-13T10:58:14.533Z,9.41
2019-04-13T11:00:42.993Z,9.45
2019-04-13T11:03:11.416Z,9.37
2019-04-13T11:05:39.720Z,9.41
2019-04-13T11:08:08.338Z,9.18
2019-04-13T11:10:36.648Z,8.91
2019-04-13T11:13:05.157Z,9.04
2019-04-13T11:15:33.735Z,9.18
2019-04-13T11:18:03.889Z,9.29
2019-04-13T11:20:32.307Z,9.43
2019-04-13T11:23:00.736Z,9.51
2019-04-13T11:25:29.054Z,9.55
2019-04-13T11:27:57.533Z,9.49
2019-04-13T11:30:25.974Z,9.48
2019-04-13T11:32:54.396Z,9.52
2019-04-13T11:35:22.716Z,9.50
2019-04-13T11:37:53.470Z,9.38
2019-04-13T11:40:22.131Z,9.30
2019-04-13T11:42:54.957Z,9.23
2019-04-13T11:45:34.279Z,9.22
2019-04-13T11:48:10.499Z,9.30
2019-04-13T11:50:40.611Z,9.33
2019-04-13T11:53:15.101Z,9.32
2019-04-13T11:55:43.789Z,9.36
2019-04-13T11:58:12.192Z,9.28
2019-04-13T12:00:58.092Z,9.24
2019-04-13T12:03:30.903Z,9.11
2019-04-13T12:06:05.375Z,9.15
2019-04-13T12:08:32.764Z,9.07
2019-04-13T12:11:02.708Z,9.03
2019-04-13T12:13:44.808Z,9.07
2019-04-13T12:16:23.422Z,9.01
2019-04-13T12:18:56.056Z,8.99
2019-04-13T12:21:41.135Z,8.93
2019-04-13T12:24:11.299Z,8.91
2019-04-13T12:26:39.752Z,8.93
2019-04-13T12:29:08.117Z,8.96
2019-04-13T12:31:39.140Z,8.95
2019-04-13T12:34:06.912Z,8.97
2019-04-13T12:36:35.441Z,9.01
2019-04-13T12:39:07.589Z,9.09
2019-04-13T12:41:38.034Z,9.08
2019-04-13T12:44:06.761Z,9.14
2019-04-13T12:46:35.161Z,9.13
2019-04-13T12:49:03.823Z,9.18
2019-04-13T12:51:32.259Z,9.06
2019-04-13T12:54:04.237Z,8.94
2019-04-13T12:56:30.782Z,8.84
2019-04-13T12:58:59.288Z,8.79
2019-04-13T13:01:29.830Z,8.73
2019-04-13T13:03:59.684Z,8.75
2019-04-13T13:06:31.723Z,8.77
2019-04-13T13:08:58.062Z,8.77
2019-04-13T13:11:26.498Z,8.79
2019-04-13T13:13:54.748Z,8.87
2019-04-13T13:16:23.153Z,8.89
2019-04-13T13:18:51.553Z,8.98
2019-04-13T13:21:19.997Z,9.17
2019-04-13T13:23:51.851Z,9.25
2019-04-13T13:26:21.680Z,9.36
2019-04-13T13:28:51.292Z,9.28
2019-04-13T13:31:19.648Z,9.19
2019-04-13T13:33:48.081Z,9.26
2019-04-13T13:36:19.724Z,9.37
2019-04-13T13:38:46.647Z,9.41
2019-04-13T13:41:15.019Z,9.44
2019-04-13T13:43:45.531Z,9.36
2019-04-13T13:46:13.864Z,9.24
2019-04-13T13:48:42.946Z,9.12
2019-04-13T13:51:11.374Z,9.01
2019-04-13T13:53:41.916Z,8.92
2019-04-13T13:56:10.206Z,8.97
2019-04-13T13:58:47.278Z,8.94
2019-04-13T14:01:17.329Z,8.97
2019-04-13T14:03:45.648Z,9.05
2019-04-13T14:06:14.100Z,9.11
2019-04-13T14:08:44.752Z,9.17
2019-04-13T14:11:12.728Z,9.22
2019-04-13T14:13:41.161Z,9.27
2019-04-13T14:16:11.475Z,9.18
2019-04-13T14:18:39.774Z,9.13
2019-04-13T14:21:09.665Z,9.03
2019-04-13T14:23:38.076Z,9.02
2019-04-13T14:26:06.423Z,9.01
2019-04-13T14:28:35.231Z,8.84
2019-04-13T14:31:03.606Z,8.77
2019-04-13T14:33:32.140Z,8.79
2019-04-13T14:36:00.537Z,8.72
2019-04-13T14:38:29.117Z,8.63
2019-04-13T14:40:57.457Z,8.56
2019-04-13T14:43:36.565Z,8.50
2019-04-13T14:46:06.484Z,8.47
2019-04-13T14:48:35.466Z,8.49
2019-04-13T14:51:04.585Z,8.46
2019-04-13T14:53:33.539Z,8.38
2019-04-13T14:56:05.170Z,8.30
2019-04-13T14:58:32.177Z,8.30
2019-04-13T15:01:00.521Z,8.28
2019-04-13T15:03:28.977Z,8.21
2019-04-13T15:05:57.453Z,8.14
2019-04-13T15:08:25.813Z,8.06
2019-04-13T15:10:56.562Z,8.06
2019-04-13T15:13:25.210Z,7.96
2019-04-13T15:15:56.870Z,7.91
2019-04-13T15:18:30.604Z,7.88
2019-04-13T15:21:00.361Z,7.78
2019-04-13T15:23:29.932Z,7.76
2019-04-13T15:25:59.250Z,7.78
2019-04-13T15:28:33.224Z,7.73
2019-04-13T15:31:03.372Z,7.68
2019-04-13T15:33:34.762Z,7.65
2019-04-13T15:36:07.863Z,7.53
2019-04-13T15:38:37.623Z,7.40
2019-04-13T15:41:09.588Z,7.36
2019-04-13T15:43:37.866Z,7.37
2019-04-13T15:46:07.169Z,7.37
2019-04-13T15:48:36.812Z,7.34
2019-04-13T15:51:25.055Z,7.28
2019-04-13T15:53:54.289Z,7.31
2019-04-13T15:56:23.666Z,7.27
2019-04-13T15:58:53.422Z,7.27
2019-04-13T16:01:21.940Z,7.39
2019-04-13T16:03:50.935Z,7.39
2019-04-13T16:06:19.467Z,7.40
2019-04-13T16:08:53.379Z,7.43
2019-04-13T16:11:42.413Z,7.38
2019-04-13T16:14:00.946Z,7.37
2019-04-13T16:16:32.628Z,7.28
2019-04-13T16:19:00.468Z,7.28
2019-04-13T16:21:28.885Z,7.34
2019-04-13T16:23:58.418Z,7.34
2019-04-13T16:26:27.161Z,7.35
2019-04-13T16:29:03.440Z,7.31
2019-04-13T16:31:33.615Z,7.31
2019-04-13T16:34:19.969Z,7.39
2019-04-13T16:37:02.682Z,7.32
2019-04-13T16:39:31.076Z,7.32
2019-04-13T16:42:05.806Z,7.38
2019-04-13T16:44:31.148Z,7.31
2019-04-13T16:47:18.673Z,7.29
2019-04-13T16:49:51.324Z,7.21
2019-04-13T16:52:24.053Z,7.21
2019-04-13T16:55:05.914Z,7.21
2019-04-13T16:57:43.754Z,7.19
2019-04-13T17:00:15.197Z,7.19
2019-04-13T17:02:52.395Z,7.06
2019-04-13T17:05:23.027Z,7.17
2019-04-13T17:07:51.801Z,7.21
2019-04-13T17:10:21.238Z,7.33
2019-04-13T17:12:51.047Z,7.33
2019-04-13T17:15:19.621Z,7.26
2019-04-13T17:17:49.086Z,7.26
2019-04-13T17:20:22.726Z,7.10
2019-04-13T17:23:08.651Z,7.16
2019-04-13T17:25:39.217Z,7.14
2019-04-13T17:28:20.525Z,7.14
2019-04-13T17:30:56.933Z,7.19
2019-04-13T17:33:33.444Z,7.06
2019-04-13T17:36:04.065Z,6.99
2019-04-13T17:38:33.204Z,6.83
2019-04-13T17:41:05.769Z,6.83
2019-04-13T17:43:51.637Z,6.79
2019-04-13T17:46:31.368Z,6.76
2019-04-13T17:49:00.626Z,6.87
2019-04-13T17:51:37.567Z,6.87
2019-04-13T17:54:08.280Z,6.85
2019-04-13T17:56:36.746Z,6.81
2019-04-13T17:59:25.545Z,6.84
2019-04-13T18:02:07.678Z,6.81
2019-04-13T18:04:53.845Z,6.86
2019-04-13T18:07:34.401Z,6.82
2019-04-13T18:10:06.983Z,6.86
2019-04-13T18:12:43.565Z,6.86
2019-04-13T18:15:10.374Z,6.86
2019-04-13T18:17:57.521Z,6.77
2019-04-13T18:20:25.861Z,6.74
2019-04-13T18:22:54.221Z,6.70
2019-04-13T18:25:33.554Z,6.70
2019-04-13T18:27:54.289Z,6.54
2019-04-13T18:30:32.504Z,6.54
2019-04-13T18:32:53.118Z,6.56
2019-04-13T18:35:21.629Z,6.58
2019-04-13T18:37:50.029Z,6.61
2019-04-13T18:40:20.010Z,6.68
2019-04-13T18:42:58.120Z,6.74
2019-04-13T18:45:20.050Z,6.74
2019-04-13T18:47:49.212Z,6.64
2019-04-13T18:50:18.144Z,6.65
2019-04-13T18:52:48.835Z,6.66
2019-04-13T18:55:18.158Z,6.59
2019-04-13T18:57:46.620Z,6.56
2019-04-13T19:00:15.418Z,6.63
2019-04-13T19:02:44.265Z,6.53
2019-04-13T19:05:12.593Z,6.45
2019-04-13T19:07:40.933Z,6.45
2019-04-13T19:10:09.454Z,6.34
2019-04-13T19:12:37.989Z,6.34
2019-04-13T19:15:06.401Z,6.26
2019-04-13T19:17:34.871Z,6.31
2019-04-13T19:20:03.977Z,6.22
2019-04-13T19:22:32.293Z,6.22
2019-04-13T19:25:00.634Z,6.23
2019-04-13T19:27:29.025Z,6.23
2019-04-13T19:29:57.525Z,6.19
2019-04-13T19:32:25.833Z,6.19
2019-04-13T19:34:54.275Z,6.26
2019-04-13T19:37:22.692Z,6.17
2019-04-13T19:39:51.113Z,6.18
2019-04-13T19:42:19.647Z,6.18
2019-04-13T19:44:48.075Z,6.16
2019-04-13T19:47:16.480Z,6.05
2019-04-13T19:49:44.821Z,6.05
2019-04-13T19:52:17.259Z,6.06
2019-04-13T19:54:45.587Z,5.88
2019-04-13T19:57:13.954Z,6.01
2019-04-13T19:59:42.531Z,6.08
2019-04-13T20:02:11.426Z,6.08
2019-04-13T20:04:39.821Z,6.10
2019-04-13T20:07:09.879Z,6.04
2019-04-13T20:09:38.273Z,6.05
2019-04-13T20:12:08.281Z,5.99
2019-04-13T20:14:37.343Z,6.01
2019-04-13T20:17:06.407Z,6.01
2019-04-13T20:19:34.853Z,5.99
2019-04-13T20:22:04.230Z,5.99
2019-04-13T20:24:32.843Z,5.94
2019-04-13T20:27:02.331Z,6.01
2019-04-13T20:29:31.862Z,5.97
2019-04-13T20:32:01.528Z,5.91
2019-04-13T20:34:31.736Z,5.91
2019-04-13T20:37:01.340Z,5.91
2019-04-13T20:39:31.523Z,6.00
2019-04-13T20:42:06.028Z,5.99
2019-04-13T20:44:30.236Z,5.99
2019-04-13T20:47:00.127Z,6.03
2019-04-13T20:49:28.617Z,6.00
2019-04-13T20:51:57.116Z,5.85
2019-04-13T20:54:25.559Z,5.85
2019-04-13T20:56:54.120Z,5.80
2019-04-13T20:59:23.570Z,5.78
2019-04-13T21:01:52.177Z,5.87
2019-04-13T21:04:21.803Z,5.86
2019-04-13T21:06:50.320Z,5.92
2019-04-13T21:09:18.934Z,5.92
2019-04-13T21:11:48.191Z,5.97
2019-04-13T21:14:26.845Z,5.97
2019-04-13T21:16:47.436Z,6.00
2019-04-13T21:19:15.900Z,5.95
2019-04-13T21:21:45.473Z,5.95
2019-04-13T21:24:15.547Z,5.94
2019-04-13T21:26:44.013Z,5.82
2019-04-13T21:29:13.153Z,5.82
2019-04-13T21:31:45.587Z,5.88
2019-04-13T21:34:14.105Z,5.88
2019-04-13T21:36:43.470Z,5.80
2019-04-13T21:39:13.365Z,5.80
2019-04-13T21:41:41.857Z,5.83
2019-04-13T21:44:19.815Z,5.81
2019-04-13T21:46:41.488Z,5.77
2019-04-13T21:49:10.068Z,5.80
2019-04-13T21:51:59.628Z,5.80
2019-04-13T21:54:30.305Z,5.81
2019-04-13T21:56:58.767Z,5.83
2019-04-13T21:59:28.130Z,5.83
2019-04-13T22:02:15.766Z,5.82
2019-04-13T22:04:44.284Z,5.70
2019-04-13T22:07:13.638Z,5.73
2019-04-13T22:09:43.352Z,5.67
2019-04-13T22:12:11.841Z,5.72
2019-04-13T22:14:51.173Z,5.75
2019-04-13T22:17:11.755Z,5.73
2019-04-13T22:19:40.272Z,5.71
2019-04-13T22:22:09.664Z,5.71
2019-04-13T22:24:39.889Z,5.71
2019-04-13T22:27:10.121Z,5.72
2019-04-13T22:29:44.151Z,5.74
2019-04-13T22:32:20.903Z,5.71
2019-04-13T22:34:59.089Z,5.71
2019-04-13T22:37:27.728Z,5.67
2019-04-13T22:39:57.476Z,5.65
2019-04-13T22:42:27.300Z,5.57
2019-04-13T22:44:59.765Z,5.51
2019-04-13T22:47:25.952Z,5.51
2019-04-13T22:50:02.707Z,5.51
2019-04-13T22:52:41.489Z,5.56
2019-04-13T22:55:27.797Z,5.47
2019-04-13T22:57:56.517Z,5.50
2019-04-13T23:00:27.841Z,5.50
2019-04-13T23:02:56.435Z,5.45
2019-04-13T23:05:26.263Z,5.45
2019-04-13T23:07:54.840Z,5.40
2019-04-13T23:10:24.721Z,5.40
2019-04-13T23:12:53.165Z,5.42
2019-04-13T23:15:27.721Z,5.46
2019-04-13T23:17:52.905Z,5.45
2019-04-13T23:20:21.480Z,5.50
2019-04-13T23:22:49.879Z,5.40
2019-04-13T23:25:18.294Z,5.52
2019-04-13T23:27:48.128Z,5.55
2019-04-13T23:30:16.617Z,5.49
2019-04-13T23:32:45.002Z,5.55
2019-04-13T23:35:13.412Z,5.51
2019-04-13T23:37:43.075Z,5.51
2019-04-13T23:40:11.733Z,5.46
2019-04-13T23:42:40.205Z,5.42
2019-04-13T23:45:17.201Z,5.41
2019-04-13T23:47:40.446Z,5.39
2019-04-13T23:50:09.167Z,5.30
2019-04-13T23:52:37.513Z,5.26
2019-04-13T23:55:05.929Z,5.27
2019-04-13T23:57:38.444Z,5.32
